Visit the IPS Meteostar Home Page IPSM Eppley Airfield FORECAST

Omaha, Nebraska

55

62

62

68

55

58

58

55

38
38
48
42
35
42
38

4 miles away at Eppley Airfield 16:52 GMT

Weather:

Clear

Wind:

NNW 9 mph

Temperature:

55 ° F

Pressure:

30.50

Dew Point:

36 ° F

Relative Humidity:

48

Feels Like:

55 ° F

Visibility:

10 miles


Aviation Observations:

KOMA 171652Z 34008KT 10SM CLR 13/02 A3047 RMK AO2 SLP322 T01280022 =

National Weather Service Forecast:
Douglas
1143 AM CDT WED OCT 17 2018

REST OF TODAY

Sunny. Highs in the lower 60s. West winds up to 5 mph.

TONIGHT

Clear. Lows in the upper 30s. South winds around 5 mph.

THURSDAY

Sunny. Highs in the lower 60s. South winds 5 to 15 mph.

THURSDAY NIGHT

Increasing clouds. A chance of sprinkles. Lows in the upper 40s. South winds 5 to 15 mph.

FRIDAY

Partly sunny in the morning then clearing. Highs in the upper 60s. Southwest winds around 15 mph shifting to the west in the afternoon. Gusts up to 25 mph.

FRIDAY NIGHT

Clear. Lows in the lower 40s.

SATURDAY

Cooler, sunny. Highs in the mid 50s.

SATURDAY NIGHT

Clear. Lows in the mid 30s.

SUNDAY

Sunny. Highs in the upper 50s.

SUNDAY NIGHT

Clear. Lows in the lower 40s.

MONDAY

Sunny. Highs in the upper 50s.

MONDAY NIGHT

Mostly clear. Lows in the upper 30s.

TUESDAY

Sunny. Highs in the mid 50s.


Visit the IPS Meteostar Home Page